createdAt,value
2023-10-06T00:00:59.929Z,72.59
2023-10-06T00:03:27.914Z,70.37
2023-10-06T00:05:57.590Z,72.79
2023-10-06T00:08:34.240Z,73.59
2023-10-06T00:11:13.169Z,72.44
2023-10-06T00:13:53.490Z,72.29
2023-10-06T00:16:22.382Z,71.64
2023-10-06T00:18:54.012Z,71.17
2023-10-06T00:21:26.472Z,69.22
2023-10-06T00:23:56.194Z,69.61
2023-10-06T00:26:28.011Z,69.75
2023-10-06T00:28:57.669Z,68.18
2023-10-06T00:31:25.889Z,68.64
2023-10-06T00:33:59.060Z,66.91
2023-10-06T00:36:30.636Z,67.96
2023-10-06T00:38:58.629Z,68.45
2023-10-06T00:41:29.569Z,72.59
2023-10-06T00:43:58.166Z,72.70
2023-10-06T00:46:26.268Z,72.66
2023-10-06T00:49:00.436Z,73.54
2023-10-06T00:51:31.581Z,73.12
2023-10-06T00:54:00.706Z,73.68
2023-10-06T00:56:30.615Z,73.56
2023-10-06T00:59:05.515Z,73.95
2023-10-06T01:01:35.745Z,74.12
2023-10-06T01:04:09.365Z,73.94
2023-10-06T01:06:39.459Z,73.76
2023-10-06T01:09:15.258Z,75.13
2023-10-06T01:11:46.823Z,73.77
2023-10-06T01:14:22.816Z,74.29
2023-10-06T01:16:54.525Z,73.25
2023-10-06T01:19:28.240Z,73.42
2023-10-06T01:21:57.451Z,72.95
2023-10-06T01:24:27.569Z,73.54
2023-10-06T01:27:00.133Z,74.17
2023-10-06T01:29:32.344Z,73.72
2023-10-06T01:32:06.382Z,74.49
2023-10-06T01:34:39.528Z,74.69
2023-10-06T01:37:09.398Z,70.95
2023-10-06T01:39:40.329Z,69.99
2023-10-06T01:42:17.734Z,72.32
2023-10-06T01:44:45.839Z,74.22
2023-10-06T01:47:19.924Z,72.81
2023-10-06T01:49:48.906Z,74.24
2023-10-06T01:52:20.841Z,73.71
2023-10-06T01:54:50.292Z,74.16
2023-10-06T01:57:18.708Z,74.78
2023-10-06T01:59:47.145Z,73.91
2023-10-06T02:02:15.575Z,73.98
2023-10-06T02:04:48.718Z,73.52
2023-10-06T02:07:20.107Z,71.53
2023-10-06T02:09:48.155Z,75.01
2023-10-06T02:12:18.340Z,73.85
2023-10-06T02:14:49.043Z,75.30
2023-10-06T02:17:18.372Z,74.67
2023-10-06T02:19:48.504Z,74.06
2023-10-06T02:22:19.528Z,72.75
2023-10-06T02:24:47.773Z,71.56
2023-10-06T02:27:17.341Z,71.74
2023-10-06T02:29:46.671Z,70.65
2023-10-06T02:32:18.040Z,74.41
2023-10-06T02:34:46.743Z,72.28
2023-10-06T02:37:20.346Z,70.94
2023-10-06T02:39:51.676Z,71.03
2023-10-06T02:42:21.602Z,72.04
2023-10-06T02:44:53.758Z,72.92
2023-10-06T02:47:22.784Z,74.93
2023-10-06T02:50:01.197Z,73.85
2023-10-06T02:52:38.633Z,74.03
2023-10-06T02:55:09.804Z,73.34
2023-10-06T02:57:42.778Z,74.31
2023-10-06T03:00:25.421Z,74.14
2023-10-06T03:02:57.509Z,74.11
2023-10-06T03:05:33.374Z,74.35
2023-10-06T03:08:10.360Z,74.73
2023-10-06T03:10:45.210Z,73.70
2023-10-06T03:13:18.116Z,74.16
2023-10-06T03:15:48.719Z,74.70
2023-10-06T03:18:17.442Z,74.09
2023-10-06T03:20:50.733Z,75.08
2023-10-06T03:23:27.878Z,75.20
2023-10-06T03:25:57.583Z,75.24
2023-10-06T03:28:33.447Z,75.08
2023-10-06T03:31:05.951Z,74.69
2023-10-06T03:33:34.030Z,73.23
2023-10-06T03:36:02.471Z,73.41
2023-10-06T03:38:36.623Z,74.30
2023-10-06T03:41:27.487Z,74.71
2023-10-06T03:44:02.348Z,72.68
2023-10-06T03:46:38.561Z,73.85
2023-10-06T03:49:09.954Z,75.28
2023-10-06T03:51:40.475Z,75.06
2023-10-06T03:54:10.833Z,72.94
2023-10-06T03:56:39.590Z,71.32
2023-10-06T03:59:17.151Z,70.69
2023-10-06T04:01:46.352Z,72.68
2023-10-06T04:04:23.976Z,73.04
2023-10-06T04:07:05.303Z,74.81
2023-10-06T04:09:34.354Z,75.52
2023-10-06T04:12:04.004Z,74.90
2023-10-06T04:14:34.652Z,73.42
2023-10-06T04:17:06.840Z,74.70
2023-10-06T04:19:35.841Z,73.67
2023-10-06T04:22:05.011Z,75.02
2023-10-06T04:24:34.056Z,75.58
2023-10-06T04:27:01.714Z,75.06
2023-10-06T04:29:36.066Z,74.24
2023-10-06T04:32:05.586Z,74.33
2023-10-06T04:34:39.974Z,73.84
2023-10-06T04:37:09.110Z,74.04
2023-10-06T04:39:40.115Z,75.95
2023-10-06T04:42:10.253Z,73.04
2023-10-06T04:44:38.868Z,71.71
2023-10-06T04:47:11.650Z,71.79
2023-10-06T04:49:39.778Z,73.41
2023-10-06T04:52:08.508Z,72.62
2023-10-06T04:54:39.170Z,72.73
2023-10-06T04:57:09.888Z,72.57
2023-10-06T04:59:38.345Z,74.58
2023-10-06T05:02:06.889Z,75.27
2023-10-06T05:04:36.923Z,74.93
2023-10-06T05:07:07.675Z,75.62
2023-10-06T05:09:36.669Z,75.94
2023-10-06T05:12:06.831Z,74.85
2023-10-06T05:14:35.771Z,73.07
2023-10-06T05:17:04.364Z,74.31
2023-10-06T05:19:36.055Z,75.08
2023-10-06T05:22:08.164Z,71.29
2023-10-06T05:24:36.448Z,71.58
2023-10-06T05:27:07.539Z,74.31
2023-10-06T05:29:37.527Z,75.27
2023-10-06T05:32:08.145Z,73.46
2023-10-06T05:34:36.743Z,73.22
2023-10-06T05:37:06.456Z,76.39
2023-10-06T05:39:42.119Z,75.95
2023-10-06T05:42:12.403Z,74.07
2023-10-06T05:44:41.179Z,74.23
2023-10-06T05:47:10.458Z,73.35
2023-10-06T05:49:48.845Z,74.45
2023-10-06T05:52:18.961Z,73.67
2023-10-06T05:54:46.737Z,75.61
2023-10-06T05:57:14.660Z,74.42
2023-10-06T05:59:44.880Z,74.88
2023-10-06T06:02:13.152Z,75.18
2023-10-06T06:04:42.839Z,74.93
2023-10-06T06:07:12.118Z,74.47
2023-10-06T06:09:42.267Z,74.75
2023-10-06T06:12:12.181Z,75.62
2023-10-06T06:14:40.630Z,75.65
2023-10-06T06:17:08.657Z,76.21
2023-10-06T06:19:36.773Z,76.99
2023-10-06T06:22:07.221Z,75.56
2023-10-06T06:24:36.374Z,75.47
2023-10-06T06:27:06.693Z,76.03
2023-10-06T06:29:34.559Z,75.26
2023-10-06T06:32:13.403Z,74.74
2023-10-06T06:34:46.155Z,72.03
2023-10-06T06:37:14.287Z,72.57
2023-10-06T06:39:45.416Z,73.42
2023-10-06T06:42:15.904Z,71.67
2023-10-06T06:44:49.074Z,73.98
2023-10-06T06:47:22.133Z,74.18
2023-10-06T06:49:58.640Z,75.37
2023-10-06T06:52:26.792Z,74.53
2023-10-06T06:54:55.231Z,73.34
2023-10-06T06:57:24.650Z,74.30
2023-10-06T06:59:53.988Z,74.39
2023-10-06T07:02:22.772Z,75.17
2023-10-06T07:04:51.251Z,72.94
2023-10-06T07:07:19.581Z,72.63
2023-10-06T07:09:48.236Z,73.00
2023-10-06T07:12:16.494Z,72.83
2023-10-06T07:14:46.892Z,72.55
2023-10-06T07:17:15.477Z,73.44
2023-10-06T07:19:44.590Z,72.85
2023-10-06T07:22:12.653Z,72.40
2023-10-06T07:24:41.609Z,70.76
2023-10-06T07:27:10.981Z,73.65
2023-10-06T07:29:39.632Z,71.68
2023-10-06T07:32:11.889Z,69.05
2023-10-06T07:34:40.370Z,68.60
2023-10-06T07:37:09.055Z,69.08
2023-10-06T07:39:38.467Z,68.02
2023-10-06T07:42:07.990Z,69.65
2023-10-06T07:44:37.026Z,67.34
2023-10-06T07:47:05.648Z,66.82
2023-10-06T07:49:37.638Z,66.21
2023-10-06T07:52:06.125Z,69.64
2023-10-06T07:54:34.875Z,70.14
2023-10-06T07:57:03.992Z,71.48
2023-10-06T07:59:32.143Z,67.81
2023-10-06T08:02:00.101Z,69.12
2023-10-06T08:04:31.592Z,67.64
2023-10-06T08:07:07.393Z,66.11
2023-10-06T08:09:35.855Z,66.25
2023-10-06T08:14:52.130Z,65.71
2023-10-06T08:17:24.459Z,66.75
2023-10-06T08:19:55.250Z,68.15
2023-10-06T08:22:27.080Z,67.04
2023-10-06T08:24:59.330Z,68.00
2023-10-06T08:27:28.991Z,66.22
2023-10-06T08:29:58.445Z,66.84
2023-10-06T08:32:31.220Z,64.26
2023-10-06T08:34:59.601Z,65.08
2023-10-06T08:37:33.916Z,64.82
2023-10-06T08:40:08.103Z,64.78
2023-10-06T08:42:38.686Z,65.32
2023-10-06T08:45:10.037Z,65.92
2023-10-06T08:47:49.433Z,65.91
2023-10-06T08:50:34.653Z,63.48
2023-10-06T08:53:11.489Z,65.44
2023-10-06T08:55:40.576Z,64.17
2023-10-06T08:58:09.642Z,63.06
2023-10-06T09:00:39.579Z,61.87
2023-10-06T09:03:12.444Z,63.35
2023-10-06T09:05:42.245Z,64.42
2023-10-06T09:08:18.978Z,64.26
2023-10-06T09:10:52.552Z,62.57
2023-10-06T09:13:25.029Z,59.86
2023-10-06T09:16:04.877Z,57.91
2023-10-06T09:18:35.860Z,58.51
2023-10-06T09:21:17.712Z,64.90
2023-10-06T09:23:50.531Z,58.39
2023-10-06T09:26:30.830Z,57.70
2023-10-06T09:29:06.242Z,57.26
2023-10-06T09:31:46.308Z,55.70
2023-10-06T09:34:26.136Z,58.00
2023-10-06T09:36:55.922Z,59.38
2023-10-06T09:39:35.236Z,59.26
2023-10-06T09:42:09.628Z,55.63
2023-10-06T09:44:40.217Z,57.55
2023-10-06T09:47:12.854Z,57.72
2023-10-06T09:49:44.480Z,57.84
2023-10-06T09:52:13.923Z,56.47
2023-10-06T09:54:45.978Z,55.91
2023-10-06T09:57:14.921Z,56.73
2023-10-06T09:59:45.146Z,60.40
2023-10-06T10:02:17.703Z,59.86
2023-10-06T10:04:52.918Z,55.83
2023-10-06T10:07:27.057Z,58.25
2023-10-06T10:09:59.487Z,60.04
2023-10-06T10:12:39.027Z,60.18
2023-10-06T10:15:23.113Z,58.46
2023-10-06T10:18:01.134Z,57.55
2023-10-06T10:20:31.374Z,59.35
2023-10-06T10:23:06.091Z,56.29
2023-10-06T10:25:38.375Z,54.92
2023-10-06T10:28:14.469Z,56.42
2023-10-06T10:30:57.502Z,56.89
2023-10-06T10:33:35.560Z,57.74
2023-10-06T10:36:23.058Z,55.80
2023-10-06T10:39:08.996Z,56.64
2023-10-06T10:41:42.905Z,57.37
2023-10-06T10:44:25.348Z,56.00
2023-10-06T10:47:02.981Z,55.64
2023-10-06T10:49:34.543Z,56.83
2023-10-06T10:52:06.414Z,53.13
2023-10-06T10:54:39.566Z,55.25
2023-10-06T10:57:15.744Z,54.34
2023-10-06T11:00:14.818Z,54.21
2023-10-06T11:02:44.969Z,52.91
2023-10-06T11:05:13.486Z,54.85
2023-10-06T11:07:45.079Z,50.29
2023-10-06T11:10:21.245Z,50.71
2023-10-06T11:13:16.795Z,49.77
2023-10-06T11:15:45.836Z,49.51
2023-10-06T11:18:21.419Z,50.03
2023-10-06T11:20:51.834Z,49.18
2023-10-06T11:23:24.602Z,50.98
2023-10-06T11:25:54.983Z,49.73
2023-10-06T11:28:25.925Z,49.85
2023-10-06T11:30:55.904Z,51.11
2023-10-06T11:33:25.100Z,49.34
2023-10-06T11:35:58.992Z,48.53
2023-10-06T11:38:27.452Z,48.11
2023-10-06T11:40:58.404Z,47.46
2023-10-06T11:43:32.156Z,46.86
2023-10-06T11:46:03.744Z,48.46
2023-10-06T11:48:36.823Z,47.75
2023-10-06T11:51:10.430Z,48.43
2023-10-06T11:53:42.437Z,46.03
2023-10-06T11:56:14.053Z,46.86
2023-10-06T11:58:50.597Z,48.69
2023-10-06T12:01:33.301Z,47.24
2023-10-06T12:04:09.338Z,48.31
2023-10-06T12:06:41.879Z,46.16
2023-10-06T12:09:25.121Z,47.66
2023-10-06T12:11:57.771Z,47.41
2023-10-06T12:14:40.064Z,47.15
2023-10-06T12:17:08.742Z,46.24
2023-10-06T12:19:38.485Z,47.80
2023-10-06T12:22:07.640Z,45.84
2023-10-06T12:24:35.971Z,45.56
2023-10-06T12:27:04.837Z,45.38
2023-10-06T12:29:35.680Z,47.21
2023-10-06T12:32:07.620Z,47.98
2023-10-06T12:34:38.942Z,46.76
2023-10-06T12:37:10.006Z,45.83
2023-10-06T12:39:41.386Z,46.35
2023-10-06T12:42:13.278Z,46.00
2023-10-06T12:44:45.127Z,46.62
2023-10-06T12:47:13.896Z,47.50
2023-10-06T12:49:45.131Z,46.83
2023-10-06T12:52:17.534Z,44.35
2023-10-06T12:54:46.525Z,43.93
2023-10-06T12:57:15.317Z,46.09
2023-10-06T12:59:44.917Z,45.30
2023-10-06T13:02:15.622Z,44.89
2023-10-06T13:04:43.846Z,43.13
2023-10-06T13:07:12.591Z,43.00
2023-10-06T13:09:42.545Z,43.37
2023-10-06T13:12:11.140Z,45.30
2023-10-06T13:14:39.896Z,43.95
2023-10-06T13:17:09.768Z,43.81
2023-10-06T13:19:38.090Z,41.62
2023-10-06T13:22:07.193Z,43.94
2023-10-06T13:24:37.056Z,42.70
2023-10-06T13:27:09.991Z,43.29
2023-10-06T13:29:40.622Z,42.25
2023-10-06T13:32:12.297Z,43.42
2023-10-06T13:34:43.884Z,41.10
2023-10-06T13:37:17.831Z,41.35
2023-10-06T13:39:48.791Z,43.06
2023-10-06T13:42:18.435Z,43.02
2023-10-06T13:44:52.533Z,44.03
2023-10-06T13:47:24.223Z,42.59
2023-10-06T13:49:55.922Z,44.55
2023-10-06T13:52:29.882Z,42.21
2023-10-06T13:54:58.746Z,41.00
2023-10-06T13:57:29.642Z,43.04
2023-10-06T14:00:01.506Z,42.91
2023-10-06T14:02:32.192Z,43.74
2023-10-06T14:05:03.403Z,42.34
2023-10-06T14:07:35.411Z,43.46
2023-10-06T14:10:04.112Z,43.74
2023-10-06T14:12:32.751Z,43.29
2023-10-06T14:15:21.813Z,45.03
2023-10-06T14:17:53.670Z,43.29
2023-10-06T14:20:33.566Z,44.50
2023-10-06T14:23:10.127Z,44.55
2023-10-06T14:25:40.588Z,44.28
2023-10-06T14:28:11.724Z,44.21
2023-10-06T14:30:42.979Z,43.38
2023-10-06T14:33:18.790Z,45.88
2023-10-06T14:39:18.066Z,43.19
2023-10-06T14:42:04.998Z,42.55
2023-10-06T14:44:50.712Z,43.32
2023-10-06T14:47:20.788Z,44.50
2023-10-06T14:49:52.376Z,43.50
2023-10-06T14:52:23.485Z,43.49
2023-10-06T14:54:54.823Z,45.18
2023-10-06T14:57:23.061Z,44.53
2023-10-06T14:59:56.679Z,43.90
2023-10-06T15:02:24.946Z,44.48
2023-10-06T15:04:54.047Z,41.19
2023-10-06T15:07:22.420Z,44.26
2023-10-06T15:09:53.519Z,44.96
2023-10-06T15:12:23.239Z,42.69
2023-10-06T15:14:51.720Z,44.05
2023-10-06T15:17:20.854Z,41.90
2023-10-06T15:19:49.992Z,41.09
2023-10-06T15:22:21.423Z,39.73
2023-10-06T15:24:51.136Z,39.62
2023-10-06T15:27:24.452Z,39.07
2023-10-06T15:29:54.146Z,41.05
2023-10-06T15:32:26.295Z,42.95
2023-10-06T15:34:54.361Z,43.24
2023-10-06T15:37:23.496Z,44.87
2023-10-06T15:39:52.859Z,43.58
2023-10-06T15:42:23.205Z,45.47
2023-10-06T15:44:56.121Z,45.97
2023-10-06T15:47:24.497Z,46.25
2023-10-06T15:50:06.142Z,46.23
2023-10-06T15:52:48.204Z,48.52
2023-10-06T15:55:17.712Z,45.79
2023-10-06T15:57:49.060Z,47.05
2023-10-06T16:00:21.786Z,46.81
2023-10-06T16:02:52.186Z,48.19
2023-10-06T16:05:27.999Z,48.49
2023-10-06T16:07:57.812Z,49.09
2023-10-06T16:10:27.041Z,48.45
2023-10-06T16:12:59.792Z,48.29
2023-10-06T16:15:29.675Z,46.65
2023-10-06T16:18:02.271Z,47.14
2023-10-06T16:20:32.389Z,47.97
2023-10-06T16:23:02.617Z,47.92
2023-10-06T16:25:32.262Z,48.37
2023-10-06T16:28:06.347Z,49.46
2023-10-06T16:30:37.290Z,47.74
2023-10-06T16:33:07.111Z,48.65
2023-10-06T16:35:43.200Z,49.05
2023-10-06T16:38:15.971Z,48.44
2023-10-06T16:40:43.968Z,47.79
2023-10-06T16:43:16.663Z,49.97
2023-10-06T16:45:46.996Z,50.13
2023-10-06T16:48:16.650Z,49.95
2023-10-06T16:50:46.937Z,51.40
2023-10-06T16:53:19.098Z,49.40
2023-10-06T16:55:49.344Z,49.50
2023-10-06T16:58:20.975Z,51.06
2023-10-06T17:00:52.622Z,49.67
2023-10-06T17:03:22.154Z,50.55
2023-10-06T17:05:52.008Z,49.75
2023-10-06T17:08:21.316Z,49.23
2023-10-06T17:10:50.847Z,48.61
2023-10-06T17:13:23.736Z,49.03
2023-10-06T17:15:53.847Z,49.94
2023-10-06T17:18:25.012Z,52.34
2023-10-06T17:20:54.415Z,51.29
2023-10-06T17:23:23.935Z,51.36
2023-10-06T17:25:51.973Z,52.55
2023-10-06T17:28:21.582Z,53.51
2023-10-06T17:30:50.619Z,54.50
2023-10-06T17:33:20.635Z,54.08
2023-10-06T17:35:51.991Z,53.14
2023-10-06T17:38:20.946Z,56.19
2023-10-06T17:40:51.073Z,57.69
2023-10-06T17:43:27.923Z,57.57
2023-10-06T17:45:59.007Z,57.53
2023-10-06T17:48:32.875Z,58.22
2023-10-06T17:51:04.800Z,57.26
2023-10-06T17:53:37.524Z,57.72
2023-10-06T17:56:09.398Z,57.29
2023-10-06T17:58:41.060Z,56.29
2023-10-06T18:01:13.180Z,57.95
2023-10-06T18:03:43.126Z,56.81
2023-10-06T18:06:11.222Z,57.27
2023-10-06T18:08:39.566Z,56.86
2023-10-06T18:11:22.573Z,57.62
2023-10-06T18:13:59.636Z,57.75
2023-10-06T18:16:32.912Z,58.63
2023-10-06T18:19:08.960Z,57.29
2023-10-06T18:21:37.526Z,57.14
2023-10-06T18:24:10.138Z,56.65
2023-10-06T18:26:39.570Z,55.94
2023-10-06T18:29:09.349Z,57.50
2023-10-06T18:31:38.596Z,57.14
2023-10-06T18:34:10.794Z,58.01
2023-10-06T18:36:41.456Z,57.44
2023-10-06T18:39:15.107Z,57.19
2023-10-06T18:41:44.389Z,56.36
2023-10-06T18:44:18.082Z,55.87
2023-10-06T18:46:54.105Z,56.30
2023-10-06T18:49:23.475Z,55.97
2023-10-06T18:51:53.958Z,55.89
2023-10-06T18:54:24.577Z,54.41
2023-10-06T18:56:56.655Z,55.91
2023-10-06T18:59:29.182Z,55.84
2023-10-06T19:02:00.383Z,54.36
2023-10-06T19:04:29.368Z,54.40
2023-10-06T19:07:02.539Z,55.22
2023-10-06T19:09:31.216Z,56.09
2023-10-06T19:11:59.201Z,56.04
2023-10-06T19:14:28.541Z,56.78
2023-10-06T19:17:03.216Z,56.53
2023-10-06T19:19:33.809Z,56.48
2023-10-06T19:22:04.393Z,56.23
2023-10-06T19:24:37.136Z,56.67
2023-10-06T19:27:07.722Z,56.32
2023-10-06T19:29:38.283Z,56.63
2023-10-06T19:32:07.401Z,55.61
2023-10-06T19:34:37.963Z,57.10
2023-10-06T19:37:06.336Z,56.54
2023-10-06T19:39:42.773Z,57.06
2023-10-06T19:42:12.742Z,54.53
2023-10-06T19:44:45.345Z,55.40
2023-10-06T19:47:16.305Z,55.10
2023-10-06T19:49:46.425Z,55.90
2023-10-06T19:52:16.659Z,56.70
2023-10-06T19:54:46.654Z,57.07
2023-10-06T19:57:16.829Z,56.46
2023-10-06T19:59:52.033Z,57.45
2023-10-06T20:02:26.750Z,57.48
2023-10-06T20:04:57.284Z,56.82
2023-10-06T20:07:30.012Z,58.35
2023-10-06T20:10:00.237Z,57.81
2023-10-06T20:12:31.540Z,58.32
2023-10-06T20:15:06.987Z,57.18
2023-10-06T20:17:41.383Z,57.63
2023-10-06T20:20:12.861Z,58.48
2023-10-06T20:22:41.096Z,57.40
2023-10-06T20:25:16.935Z,59.09
2023-10-06T20:27:47.996Z,58.98
2023-10-06T20:30:21.620Z,59.59
2023-10-06T20:33:00.006Z,59.05
2023-10-06T20:35:32.241Z,58.46
2023-10-06T20:38:03.649Z,58.64
2023-10-06T20:40:36.089Z,58.52
2023-10-06T20:43:08.978Z,60.16
2023-10-06T20:45:41.480Z,59.55
2023-10-06T20:48:10.892Z,59.59
2023-10-06T20:50:44.465Z,60.00
2023-10-06T20:53:12.755Z,60.20
2023-10-06T20:55:43.371Z,61.41
2023-10-06T20:58:14.385Z,60.77
2023-10-06T21:00:44.390Z,62.39
2023-10-06T21:03:16.892Z,60.59
2023-10-06T21:05:47.253Z,60.58
2023-10-06T21:08:18.236Z,61.60
2023-10-06T21:10:48.475Z,60.99
2023-10-06T21:13:20.642Z,61.51
2023-10-06T21:15:52.558Z,61.56
2023-10-06T21:18:24.558Z,60.79
2023-10-06T21:20:52.750Z,61.21
2023-10-06T21:23:23.362Z,62.65
2023-10-06T21:25:56.700Z,61.93
2023-10-06T21:28:30.399Z,62.86
2023-10-06T21:31:06.491Z,63.15
2023-10-06T21:33:37.171Z,62.57
2023-10-06T21:36:08.032Z,62.76
2023-10-06T21:38:36.394Z,63.48
2023-10-06T21:41:10.510Z,62.52
2023-10-06T21:43:39.451Z,63.24
2023-10-06T21:46:09.666Z,62.35
2023-10-06T21:48:41.648Z,62.27
2023-10-06T21:51:15.105Z,60.91
2023-10-06T21:53:45.708Z,62.54
2023-10-06T21:56:17.687Z,60.87
2023-10-06T21:58:48.810Z,63.33
2023-10-06T22:01:25.330Z,62.58
2023-10-06T22:03:55.229Z,62.68
2023-10-06T22:06:25.952Z,62.78
2023-10-06T22:08:55.224Z,63.44
2023-10-06T22:11:25.656Z,63.47
2023-10-06T22:14:03.128Z,63.59
2023-10-06T22:16:35.103Z,64.08
2023-10-06T22:19:04.811Z,63.17
2023-10-06T22:21:34.126Z,62.60
2023-10-06T22:24:05.919Z,63.92
2023-10-06T22:26:37.701Z,64.29
2023-10-06T22:29:10.573Z,64.68
2023-10-06T22:31:43.137Z,64.37
2023-10-06T22:34:14.517Z,61.84
2023-10-06T22:36:43.054Z,63.99
2023-10-06T22:39:11.940Z,64.33
2023-10-06T22:41:42.424Z,64.18
2023-10-06T22:44:11.830Z,64.39
2023-10-06T22:46:42.214Z,64.20
2023-10-06T22:49:11.730Z,63.67
2023-10-06T22:51:40.817Z,64.63
2023-10-06T22:54:10.109Z,64.70
2023-10-06T22:56:39.360Z,65.37
2023-10-06T22:59:07.281Z,65.08
2023-10-06T23:01:36.725Z,62.44
2023-10-06T23:04:07.997Z,60.66
2023-10-06T23:06:36.821Z,62.24
2023-10-06T23:09:06.338Z,63.52
2023-10-06T23:11:37.784Z,63.49
2023-10-06T23:14:12.559Z,61.77
2023-10-06T23:16:42.823Z,62.26
2023-10-06T23:19:14.203Z,63.07
2023-10-06T23:24:26.044Z,61.19
2023-10-06T23:26:57.849Z,61.28
2023-10-06T23:29:27.397Z,62.05
2023-10-06T23:31:57.436Z,64.00
2023-10-06T23:34:29.448Z,63.47
2023-10-06T23:37:01.739Z,62.97
2023-10-06T23:39:30.232Z,62.12
2023-10-06T23:41:58.549Z,60.81
2023-10-06T23:44:30.981Z,61.52
2023-10-06T23:47:02.629Z,61.81
2023-10-06T23:49:34.876Z,62.98
2023-10-06T23:52:03.199Z,64.33
2023-10-06T23:54:31.495Z,62.40
2023-10-06T23:56:59.662Z,60.72
2023-10-06T23:59:30.285Z,61.74
